Time;durP1;ratioP1;P1;durP2;ratioP2;P2;SDS_P1;SDS_P2;PMS_P1;PMS_P2;Temp;Humidity;BMP_temperature;BMP_pressure;BME280_temperature;BME280_humidity;BME280_pressure;Samples;Min_cycle;Max_cycle;Signal;HPM_P1;HPM_P2
2022/10/26 00:01:03;;;;;;;3.38;2.30;;;11.80;99.90;;;;;;5007625;28;20485;-67
2022/10/26 00:03:30;;;;;;;5.20;2.60;;;11.80;99.90;;;;;;5007710;28;20241;-68
2022/10/26 00:06:03;;;;;;;2.83;2.33;;;11.80;99.90;;;;;;5008178;28;20848;-68
2022/10/26 00:08:30;;;;;;;2.75;2.33;;;11.80;99.90;;;;;;5008170;28;20473;-67
2022/10/26 00:10:58;;;;;;;4.00;2.50;;;11.80;99.90;;;;;;5007745;28;20207;-68
2022/10/26 00:13:25;;;;;;;2.33;2.13;;;11.80;99.90;;;;;;5034657;22;20498;-93
2022/10/26 00:15:53;;;;;;;3.53;2.20;;;11.80;99.90;;;;;;5044817;28;20215;-94
2022/10/26 00:18:20;;;;;;;3.83;2.13;;;11.80;99.90;;;;;;5057150;28;20468;-95
2022/10/26 00:20:47;;;;;;;6.03;3.20;;;11.80;99.90;;;;;;5057081;28;20214;-95
2022/10/26 00:23:14;;;;;;;1.93;1.83;;;11.80;99.90;;;;;;5056525;28;20186;-96
2022/10/26 00:25:41;;;;;;;3.58;2.40;;;11.80;99.90;;;;;;5056984;28;20717;-95
2022/10/26 00:28:08;;;;;;;6.65;2.33;;;11.80;99.90;;;;;;5057128;28;20210;-94
2022/10/26 00:30:35;;;;;;;2.22;2.03;;;11.80;99.90;;;;;;5056830;28;20253;-94
2022/10/26 00:33:04;;;;;;;4.72;2.47;;;11.80;99.90;;;;;;5056174;28;20182;-95
2022/10/26 00:35:30;;;;;;;3.78;2.13;;;11.90;99.90;;;;;;5056803;28;20186;-94
2022/10/26 00:37:57;;;;;;;2.90;2.50;;;11.90;99.90;;;;;;5056884;28;20186;-95
2022/10/26 00:40:28;;;;;;;3.50;2.80;;;11.90;99.90;;;;;;5056746;28;20489;-95
2022/10/26 00:42:55;;;;;;;3.45;2.30;;;11.90;99.90;;;;;;5056684;28;20524;-95
2022/10/26 00:45:24;;;;;;;2.25;2.05;;;11.90;99.90;;;;;;5056652;28;20213;-95
2022/10/26 00:47:56;;;;;;;2.00;1.90;;;11.90;99.90;;;;;;5057011;28;20186;-94
2022/10/26 00:50:28;;;;;;;2.93;2.23;;;11.90;99.90;;;;;;5056880;28;20198;-95
2022/10/26 00:52:58;;;;;;;2.17;1.97;;;11.90;99.90;;;;;;5056576;28;20442;-94
2022/10/26 00:55:29;;;;;;;3.38;2.47;;;12.00;99.90;;;;;;5056814;28;20488;-93
2022/10/26 00:57:56;;;;;;;2.70;2.20;;;11.90;99.90;;;;;;5056917;28;20205;-93
2022/10/26 01:00:23;;;;;;;2.95;2.30;;;11.90;99.90;;;;;;5056614;28;20217;-94
2022/10/26 01:02:51;;;;;;;2.53;2.33;;;11.90;99.90;;;;;;5056616;28;20210;-94
2022/10/26 01:05:19;;;;;;;4.28;2.10;;;12.00;99.90;;;;;;5056720;28;20206;-94
2022/10/26 01:07:48;;;;;;;2.90;2.30;;;12.00;99.90;;;;;;5056882;28;20274;-94
2022/10/26 01:10:15;;;;;;;3.50;1.85;;;12.00;99.90;;;;;;5056441;28;20269;-94
2022/10/26 01:12:42;;;;;;;3.80;2.20;;;12.00;99.90;;;;;;5057294;28;20179;-95
2022/10/26 01:15:10;;;;;;;3.20;2.13;;;12.10;99.90;;;;;;5060087;28;20289;-94
2022/10/26 01:18:02;;;;;;;1.80;1.50;;;12.10;99.90;;;;;;5060342;28;20516;-95
2022/10/26 01:21:01;;;;;;;1.98;1.80;;;12.10;99.90;;;;;;5060198;28;20210;-94
2022/10/26 01:23:34;;;;;;;2.88;1.70;;;12.20;99.90;;;;;;5059616;28;20213;-94
2022/10/26 01:26:40;;;;;;;4.90;1.80;;;12.20;99.90;;;;;;5060254;28;20255;-94
2022/10/26 01:29:46;;;;;;;2.57;1.90;;;12.20;99.90;;;;;;5060003;28;20460;-94
2022/10/26 01:32:20;;;;;;;2.50;2.27;;;12.20;99.90;;;;;;5059726;28;20471;-94
2022/10/26 01:34:54;;;;;;;2.22;1.75;;;12.20;99.90;;;;;;5059944;28;20544;-95
2022/10/26 01:37:28;;;;;;;2.40;2.00;;;12.20;99.90;;;;;;5060225;28;20187;-94
2022/10/26 01:40:02;;;;;;;4.63;1.93;;;12.20;99.90;;;;;;5059826;28;20205;-95
2022/10/26 01:42:32;;;;;;;2.10;1.83;;;12.20;99.90;;;;;;5059727;28;20480;-94
2022/10/26 01:45:03;;;;;;;2.25;2.05;;;12.20;99.90;;;;;;5059410;28;20237;-95
2022/10/26 01:47:35;;;;;;;2.00;1.70;;;12.20;99.90;;;;;;5059662;28;20218;-94
2022/10/26 01:50:03;;;;;;;2.20;2.00;;;12.20;99.90;;;;;;5059359;28;20529;-95
2022/10/26 01:52:30;;;;;;;3.63;2.40;;;12.20;99.90;;;;;;5059165;28;20465;-93
2022/10/26 01:55:01;;;;;;;2.80;2.10;;;12.20;99.90;;;;;;5059142;28;20460;-95
2022/10/26 01:57:33;;;;;;;2.50;2.10;;;12.20;99.90;;;;;;5059358;28;20191;-94
2022/10/26 02:00:06;;;;;;;2.00;1.80;;;12.20;99.90;;;;;;5059094;28;20449;-94
2022/10/26 02:02:54;;;;;;;2.13;1.80;;;12.20;99.90;;;;;;5059096;28;20472;-95
2022/10/26 02:05:42;;;;;;;7.35;2.20;;;12.10;99.90;;;;;;5057582;28;20497;-94
2022/10/26 02:08:24;;;;;;;1.77;1.63;;;12.10;99.90;;;;;;5059270;28;20265;-94
2022/10/26 02:11:01;;;;;;;2.20;2.00;;;12.20;99.90;;;;;;5059381;28;20476;-94
2022/10/26 02:13:38;;;;;;;2.25;2.05;;;12.20;99.90;;;;;;5058878;28;20483;-95
2022/10/26 02:16:15;;;;;;;4.53;2.42;;;12.20;99.90;;;;;;5059186;28;20213;-94
2022/10/26 02:18:52;;;;;;;3.33;2.30;;;12.20;99.90;;;;;;5059188;28;20201;-95
2022/10/26 02:21:23;;;;;;;2.13;1.70;;;12.20;99.90;;;;;;5058575;28;20555;-94
2022/10/26 02:23:53;;;;;;;2.42;1.92;;;12.20;99.90;;;;;;5058305;28;20461;-94
2022/10/26 02:26:24;;;;;;;2.83;1.77;;;12.10;99.90;;;;;;5058646;28;20261;-94
2022/10/26 02:28:54;;;;;;;3.88;2.33;;;12.20;99.90;;;;;;5058986;28;20242;-95
2022/10/26 02:31:21;;;;;;;3.33;1.40;;;12.20;99.90;;;;;;5058528;28;20229;-96
2022/10/26 02:33:52;;;;;;;1.90;1.70;;;12.10;99.90;;;;;;5058762;28;20461;-94
2022/10/26 02:36:25;;;;;;;3.17;1.80;;;12.10;99.90;;;;;;5058612;28;20532;-95
2022/10/26 02:38:53;;;;;;;1.70;1.60;;;12.10;99.90;;;;;;5058731;28;20202;-93
2022/10/26 02:41:22;;;;;;;2.80;2.50;;;12.10;99.90;;;;;;5058379;28;20213;-95
2022/10/26 02:43:54;;;;;;;2.27;1.70;;;12.10;99.90;;;;;;5058521;28;20226;-94
2022/10/26 02:46:25;;;;;;;1.90;1.75;;;12.10;99.90;;;;;;5058494;28;20572;-95
2022/10/26 02:48:53;;;;;;;3.30;1.50;;;12.10;99.90;;;;;;5058736;28;20187;-95
2022/10/26 02:51:27;;;;;;;1.90;1.70;;;12.10;99.90;;;;;;5058208;28;20444;-95
2022/10/26 02:53:58;;;;;;;2.85;1.42;;;12.10;99.90;;;;;;5058458;28;20485;-96
2022/10/26 02:56:31;;;;;;;4.27;1.77;;;12.20;99.90;;;;;;5058488;28;20202;-95
2022/10/26 02:59:02;;;;;;;2.77;2.10;;;12.20;99.90;;;;;;5058389;28;20437;-95
2022/10/26 03:01:31;;;;;;;2.13;1.70;;;12.20;99.90;;;;;;5058290;28;20500;-95
2022/10/26 03:04:00;;;;;;;2.17;1.97;;;12.20;99.90;;;;;;5058226;28;20457;-93
2022/10/26 03:06:27;;;;;;;2.47;1.93;;;12.20;99.90;;;;;;5058173;28;20469;-95
2022/10/26 03:08:54;;;;;;;2.63;1.70;;;12.30;99.90;;;;;;5058270;28;20522;-94
2022/10/26 03:11:21;;;;;;;1.60;1.50;;;12.30;99.90;;;;;;5057943;28;20438;-95
2022/10/26 03:13:48;;;;;;;1.80;1.70;;;12.30;99.90;;;;;;5057924;28;20465;-94
2022/10/26 03:16:14;;;;;;;1.97;1.73;;;12.40;99.90;;;;;;5057977;28;20441;-94
2022/10/26 03:18:41;;;;;;;1.70;1.60;;;12.40;99.90;;;;;;5058201;28;20461;-93
2022/10/26 03:21:10;;;;;;;3.20;1.80;;;12.40;99.90;;;;;;5057652;28;20544;-94
2022/10/26 03:23:36;;;;;;;1.80;1.60;;;12.50;99.90;;;;;;5057893;28;20529;-95
2022/10/26 03:28:51;;;;;;;2.97;2.00;;;12.50;99.90;;;;;;5056224;28;20429;-95
2022/10/26 03:31:18;;;;;;;2.30;1.97;;;12.50;99.90;;;;;;5036180;23;21024;-68
2022/10/26 03:33:44;;;;;;;4.93;1.70;;;12.60;99.90;;;;;;5026980;28;20851;-68
2022/10/26 03:36:13;;;;;;;1.67;1.53;;;12.60;99.90;;;;;;5030384;28;20465;-68
2022/10/26 03:38:39;;;;;;;2.40;1.43;;;12.70;99.90;;;;;;5031267;28;20483;-68
2022/10/26 03:41:06;;;;;;;3.27;2.17;;;12.70;99.90;;;;;;5030874;28;21008;-68
2022/10/26 03:43:33;;;;;;;2.73;1.90;;;12.80;99.90;;;;;;5030957;28;20465;-68
2022/10/26 03:45:59;;;;;;;3.03;2.17;;;12.80;99.90;;;;;;5030997;28;20468;-68
2022/10/26 03:48:26;;;;;;;2.07;1.50;;;12.90;99.90;;;;;;5031050;28;20480;-68
2022/10/26 03:50:57;;;;;;;2.47;1.80;;;12.90;99.90;;;;;;5030460;28;20972;-68
2022/10/26 03:53:25;;;;;;;4.17;2.20;;;12.90;99.90;;;;;;5030544;28;20468;-68
2022/10/26 03:55:52;;;;;;;2.10;1.90;;;12.90;99.90;;;;;;5030809;28;20508;-68
2022/10/26 03:58:19;;;;;;;3.00;2.10;;;13.00;99.90;;;;;;5031029;28;20583;-67
2022/10/26 04:00:47;;;;;;;3.67;2.40;;;13.00;99.90;;;;;;5030719;28;20476;-68
2022/10/26 04:03:13;;;;;;;2.50;2.03;;;13.00;99.90;;;;;;5030264;28;20461;-68
2022/10/26 04:05:40;;;;;;;2.05;1.90;;;13.00;99.90;;;;;;5030426;28;20491;-68
2022/10/26 04:08:08;;;;;;;2.13;1.97;;;13.00;99.90;;;;;;5030813;28;20560;-68
2022/10/26 04:10:36;;;;;;;2.00;1.80;;;13.00;99.90;;;;;;5030609;28;20464;-68
2022/10/26 04:13:03;;;;;;;1.77;1.67;;;13.00;99.90;;;;;;5030394;28;20456;-68
2022/10/26 04:15:30;;;;;;;1.70;1.60;;;13.10;99.90;;;;;;5030759;28;20481;-68
2022/10/26 04:17:57;;;;;;;2.27;2.07;;;13.10;99.90;;;;;;5030777;28;20465;-68
2022/10/26 04:20:25;;;;;;;1.87;1.77;;;13.10;99.90;;;;;;5030958;28;20472;-68
2022/10/26 04:22:59;;;;;;;2.47;1.90;;;13.20;99.90;;;;;;5029872;28;21004;-68
2022/10/26 04:25:26;;;;;;;2.57;1.60;;;13.20;99.90;;;;;;5030372;28;20484;-70
2022/10/26 04:27:54;;;;;;;1.80;1.70;;;13.20;99.90;;;;;;5030617;28;20465;-69
2022/10/26 04:30:21;;;;;;;6.07;1.87;;;13.20;99.90;;;;;;5030432;28;20492;-68
2022/10/26 04:32:47;;;;;;;2.30;1.70;;;13.20;99.90;;;;;;5030227;28;20468;-69
2022/10/26 04:35:14;;;;;;;3.00;2.20;;;13.20;99.90;;;;;;5030429;28;20491;-69
2022/10/26 04:37:41;;;;;;;2.10;1.70;;;13.20;99.90;;;;;;5030545;28;20464;-69
2022/10/26 04:40:09;;;;;;;2.67;1.63;;;13.20;99.90;;;;;;5030371;28;20488;-71
2022/10/26 04:42:41;;;;;;;2.80;1.70;;;13.20;99.90;;;;;;5029984;28;20492;-69
2022/10/26 04:45:10;;;;;;;2.37;1.67;;;13.10;99.90;;;;;;5030370;28;20706;-71
2022/10/26 04:47:37;;;;;;;2.20;1.90;;;13.10;99.90;;;;;;5031570;28;20460;-71
2022/10/26 04:50:05;;;;;;;3.70;1.97;;;13.10;99.90;;;;;;5034064;28;20461;-72
2022/10/26 04:52:32;;;;;;;2.50;2.00;;;13.10;99.90;;;;;;5033447;28;20487;-72
2022/10/26 04:54:59;;;;;;;1.83;1.70;;;13.10;99.90;;;;;;5034139;28;20485;-71
2022/10/26 04:57:25;;;;;;;1.70;1.60;;;13.10;99.90;;;;;;5034420;28;20472;-69
2022/10/26 04:59:52;;;;;;;8.03;2.27;;;13.10;99.90;;;;;;5034174;28;20484;-70
2022/10/26 05:02:20;;;;;;;2.43;1.93;;;13.10;99.90;;;;;;5032564;28;20485;-69
2022/10/26 05:04:48;;;;;;;1.77;1.50;;;13.10;99.90;;;;;;5033607;28;20543;-70
2022/10/26 05:07:14;;;;;;;1.93;1.80;;;13.00;99.90;;;;;;5033277;28;20457;-70
2022/10/26 05:09:41;;;;;;;2.23;1.90;;;13.00;99.90;;;;;;5033950;28;20879;-70
2022/10/26 05:12:08;;;;;;;1.73;1.63;;;13.10;99.90;;;;;;5033470;28;20469;-70
2022/10/26 05:14:35;;;;;;;4.00;2.20;;;13.10;99.90;;;;;;5033814;28;20488;-70
2022/10/26 05:17:01;;;;;;;2.23;1.70;;;13.10;99.90;;;;;;5033655;28;20983;-69
2022/10/26 05:19:29;;;;;;;1.97;1.80;;;13.10;99.90;;;;;;5033761;28;20471;-72
2022/10/26 05:21:56;;;;;;;2.33;1.80;;;13.10;99.90;;;;;;5033080;28;20488;-70
2022/10/26 05:24:23;;;;;;;2.73;1.60;;;13.20;99.90;;;;;;5033758;28;20492;-73
2022/10/26 05:26:50;;;;;;;2.03;1.60;;;13.20;99.90;;;;;;5034004;28;20990;-72
2022/10/26 05:29:16;;;;;;;2.00;1.80;;;13.20;99.90;;;;;;5033367;28;20498;-75
2022/10/26 05:31:43;;;;;;;4.07;2.30;;;13.20;99.90;;;;;;5033130;28;20457;-72
2022/10/26 05:34:10;;;;;;;2.07;1.83;;;13.20;99.90;;;;;;5033611;28;20491;-69
2022/10/26 05:36:38;;;;;;;2.60;1.90;;;13.20;99.90;;;;;;5033612;28;20568;-68
2022/10/26 05:39:05;;;;;;;1.60;1.50;;;13.20;99.90;;;;;;5033177;28;20488;-68
2022/10/26 05:41:31;;;;;;;1.80;1.70;;;13.20;99.90;;;;;;5032964;28;21011;-68
2022/10/26 05:43:58;;;;;;;2.00;1.80;;;13.20;99.90;;;;;;5033202;28;20487;-70
2022/10/26 05:46:25;;;;;;;2.10;1.80;;;13.20;99.90;;;;;;5033526;28;20473;-68
2022/10/26 05:48:52;;;;;;;3.27;2.13;;;13.20;99.90;;;;;;5031697;28;21021;-69
2022/10/26 05:51:18;;;;;;;3.00;2.20;;;13.20;99.90;;;;;;5032065;28;20461;-68
2022/10/26 05:53:47;;;;;;;5.00;2.10;;;13.30;99.90;;;;;;5032731;28;20461;-69
2022/10/26 05:56:19;;;;;;;2.53;1.63;;;13.30;99.90;;;;;;5032926;28;20995;-73
2022/10/26 05:58:46;;;;;;;2.40;2.23;;;13.30;99.90;;;;;;5032695;28;20488;-70
2022/10/26 06:01:21;;;;;;;4.20;1.97;;;13.40;99.90;;;;;;5032294;28;20471;-71
2022/10/26 06:04:09;;;;;;;1.93;1.70;;;13.40;99.90;;;;;;5032076;28;20463;-71
2022/10/26 06:06:40;;;;;;;2.70;1.70;;;13.40;99.90;;;;;;4992774;28;20525;-72
2022/10/26 06:09:10;;;;;;;3.07;2.30;;;13.40;99.90;;;;;;4993206;28;20458;-71
2022/10/26 06:11:37;;;;;;;1.57;1.30;;;13.40;99.90;;;;;;4992902;28;20843;-68
2022/10/26 06:14:06;;;;;;;3.13;1.83;;;13.40;99.90;;;;;;4992678;28;20529;-70
2022/10/26 06:16:54;;;;;;;1.90;1.57;;;13.40;99.90;;;;;;5049263;23;20492;-93
2022/10/26 06:19:42;;;;;;;3.00;1.40;;;13.40;99.90;;;;;;5000110;28;20458;-92
2022/10/26 06:22:27;;;;;;;2.50;1.90;;;13.50;99.90;;;;;;4999778;28;20483;-92
2022/10/26 06:25:04;;;;;;;2.47;1.60;;;13.50;99.90;;;;;;5001698;28;20447;-92
2022/10/26 06:30:22;;;;;;;4.50;1.53;;;13.60;99.90;;;;;;5001863;28;20250;-93
2022/10/26 06:33:04;;;;;;;3.80;1.60;;;13.70;99.90;;;;;;4999226;28;20455;-93
2022/10/26 06:35:50;;;;;;;1.40;1.23;;;13.70;99.90;;;;;;4998244;28;20482;-92
2022/10/26 06:41:40;;;;;;;4.20;1.50;;;13.80;99.90;;;;;;4997262;28;20491;-91
2022/10/26 06:47:08;;;;;;;2.37;1.57;;;13.80;99.90;;;;;;5001619;28;20517;-92
2022/10/26 06:49:42;;;;;;;2.07;1.70;;;13.80;99.90;;;;;;5016098;28;20506;-92
2022/10/26 06:52:15;;;;;;;2.10;1.90;;;13.80;99.90;;;;;;4997861;28;20456;-91
2022/10/26 06:55:04;;;;;;;1.53;1.43;;;13.80;99.90;;;;;;4997525;28;20470;-92
2022/10/26 06:57:36;;;;;;;6.40;1.73;;;13.90;99.90;;;;;;4997664;28;20530;-91
2022/10/26 07:00:07;;;;;;;2.73;1.60;;;13.90;99.90;;;;;;4997119;28;20463;-93
2022/10/26 07:02:34;;;;;;;2.80;1.40;;;13.90;99.90;;;;;;4998023;28;20558;-92
2022/10/26 07:05:00;;;;;;;2.70;1.73;;;14.00;99.90;;;;;;4996907;28;20490;-90
2022/10/26 07:07:31;;;;;;;3.33;1.40;;;14.00;99.90;;;;;;4998022;28;20469;-92
2022/10/26 07:09:57;;;;;;;2.77;2.20;;;14.00;99.90;;;;;;4997539;28;20530;-92
2022/10/26 07:12:24;;;;;;;3.50;1.67;;;14.10;99.90;;;;;;4997036;28;20458;-91
2022/10/26 07:14:52;;;;;;;2.67;2.03;;;14.10;99.90;;;;;;4997484;28;20471;-91
2022/10/26 07:17:20;;;;;;;4.13;2.00;;;14.10;99.90;;;;;;4998213;28;20471;-92
2022/10/26 07:19:47;;;;;;;1.97;1.70;;;14.10;99.90;;;;;;5007921;28;20534;-92
2022/10/26 07:22:15;;;;;;;3.00;2.80;;;14.20;99.90;;;;;;5015731;28;20494;-93
2022/10/26 07:24:42;;;;;;;5.20;2.20;;;14.20;99.90;;;;;;5014330;28;20494;-92
2022/10/26 07:27:09;;;;;;;2.90;2.13;;;14.20;99.90;;;;;;5013806;28;20463;-92
2022/10/26 07:29:36;;;;;;;4.00;2.10;;;14.20;99.90;;;;;;5006490;28;20463;-93
2022/10/26 07:32:04;;;;;;;2.97;2.00;;;14.30;99.90;;;;;;5003328;28;20493;-91
2022/10/26 07:34:31;;;;;;;1.90;1.67;;;14.30;99.90;;;;;;4997612;28;20469;-91
2022/10/26 07:36:59;;;;;;;3.27;2.17;;;14.30;99.90;;;;;;4997969;28;20489;-93
2022/10/26 07:39:26;;;;;;;4.00;2.37;;;14.30;99.90;;;;;;4999405;28;20474;-92
2022/10/26 07:41:53;;;;;;;3.57;2.10;;;14.30;99.90;;;;;;4997730;28;20509;-92
2022/10/26 07:44:20;;;;;;;3.00;1.90;;;14.30;99.90;;;;;;4997212;28;20952;-92
2022/10/26 07:46:47;;;;;;;2.73;2.00;;;14.40;99.90;;;;;;4997627;28;20483;-91
2022/10/26 07:49:15;;;;;;;2.10;1.43;;;14.40;99.90;;;;;;5011359;28;20539;-92
2022/10/26 07:51:42;;;;;;;1.60;1.47;;;14.40;99.90;;;;;;5016127;28;20502;-93
2022/10/26 07:54:09;;;;;;;2.77;1.87;;;14.40;99.90;;;;;;5016499;28;20442;-92
2022/10/26 07:56:36;;;;;;;3.00;2.30;;;14.50;99.90;;;;;;5014147;28;20479;-92
2022/10/26 07:59:03;;;;;;;2.37;2.17;;;14.50;99.90;;;;;;5017395;28;20443;-95
2022/10/26 08:01:30;;;;;;;2.23;2.03;;;14.50;99.90;;;;;;5017232;28;20459;-95
2022/10/26 08:03:56;;;;;;;2.13;1.87;;;14.50;99.90;;;;;;5028990;23;20525;-67
2022/10/26 08:06:25;;;;;;;3.50;2.17;;;14.50;99.90;;;;;;5015136;28;20825;-67
2022/10/26 08:08:51;;;;;;;2.73;1.77;;;14.60;99.90;;;;;;5030668;28;20540;-67
2022/10/26 08:11:18;;;;;;;2.60;2.27;;;14.60;99.90;;;;;;5030258;28;20464;-67
2022/10/26 08:13:45;;;;;;;3.03;1.93;;;14.60;99.90;;;;;;5030416;28;20457;-67
2022/10/26 08:16:12;;;;;;;2.47;2.10;;;14.70;99.90;;;;;;5030107;28;20465;-67
2022/10/26 08:18:39;;;;;;;2.53;2.33;;;14.70;99.90;;;;;;5030846;28;20460;-67
2022/10/26 08:21:10;;;;;;;3.73;2.27;;;14.70;99.90;;;;;;5030405;28;20957;-67
2022/10/26 08:23:38;;;;;;;3.47;2.10;;;14.60;99.90;;;;;;5034850;28;20587;-67
2022/10/26 08:26:06;;;;;;;2.33;1.87;;;14.70;99.90;;;;;;5034739;28;20491;-67
2022/10/26 08:28:33;;;;;;;4.60;2.17;;;14.60;99.90;;;;;;5022638;28;20462;-67
2022/10/26 08:31:01;;;;;;;1.63;1.53;;;14.60;99.90;;;;;;5012417;28;20460;-67
2022/10/26 08:33:28;;;;;;;2.67;2.20;;;14.70;99.90;;;;;;5013172;28;20458;-67
2022/10/26 08:36:00;;;;;;;2.73;1.70;;;14.70;99.90;;;;;;5012726;28;20573;-68
2022/10/26 08:38:27;;;;;;;3.07;2.10;;;14.70;99.90;;;;;;5014234;28;20477;-67
2022/10/26 08:40:57;;;;;;;5.60;2.40;;;14.80;99.90;;;;;;5014308;28;20505;-67
2022/10/26 08:43:33;;;;;;;2.50;2.30;;;14.70;99.90;;;;;;5013780;28;20576;-68
2022/10/26 08:46:08;;;;;;;2.73;1.90;;;14.80;99.90;;;;;;5014427;28;20821;-67
2022/10/26 08:48:40;;;;;;;3.37;2.23;;;14.80;99.90;;;;;;5014252;28;20493;-67
2022/10/26 08:51:12;;;;;;;2.67;1.90;;;14.90;99.90;;;;;;5013531;28;20520;-67
2022/10/26 08:53:43;;;;;;;2.10;1.97;;;14.90;99.90;;;;;;5014187;28;20496;-67
2022/10/26 08:56:18;;;;;;;2.40;2.20;;;15.00;99.90;;;;;;5014123;28;20898;-67
2022/10/26 08:58:50;;;;;;;2.47;1.80;;;15.00;99.90;;;;;;5013910;28;20461;-67
2022/10/26 09:01:18;;;;;;;2.50;2.23;;;15.10;99.90;;;;;;5013428;28;20500;-66
2022/10/26 09:03:45;;;;;;;2.20;1.90;;;15.10;99.90;;;;;;5013730;28;20539;-67
2022/10/26 09:06:20;;;;;;;2.30;1.90;;;15.20;99.90;;;;;;5013474;28;20465;-67
2022/10/26 09:09:00;;;;;;;3.30;2.00;;;15.30;99.90;;;;;;5014144;28;20461;-67
2022/10/26 09:11:44;;;;;;;2.43;1.90;;;15.30;99.90;;;;;;5013150;28;20461;-67
2022/10/26 09:14:18;;;;;;;3.83;3.53;;;15.40;99.90;;;;;;5013496;28;20484;-67
2022/10/26 09:16:56;;;;;;;2.70;2.50;;;15.50;99.90;;;;;;5013746;28;20940;-66
2022/10/26 09:19:44;;;;;;;4.80;2.20;;;15.60;99.90;;;;;;5013530;28;20469;-67
2022/10/26 09:22:15;;;;;;;2.43;2.20;;;15.60;99.90;;;;;;5013020;28;20861;-68
2022/10/26 09:24:51;;;;;;;2.70;2.17;;;15.80;99.90;;;;;;5013554;28;20481;-67
2022/10/26 09:27:25;;;;;;;2.03;1.70;;;16.10;99.90;;;;;;5013049;28;20514;-67
2022/10/26 09:29:54;;;;;;;2.40;1.60;;;16.30;99.90;;;;;;5013419;28;20504;-67
2022/10/26 09:32:24;;;;;;;2.83;2.13;;;16.30;99.90;;;;;;5013016;28;20462;-67
2022/10/26 09:34:53;;;;;;;1.83;1.73;;;16.40;99.90;;;;;;5012563;28;20907;-67
2022/10/26 09:37:24;;;;;;;2.47;1.50;;;16.70;99.90;;;;;;5013301;28;20468;-67
2022/10/26 09:39:59;;;;;;;3.47;2.07;;;17.20;99.90;;;;;;5025589;28;20468;-67
2022/10/26 09:42:36;;;;;;;4.10;1.67;;;17.80;99.90;;;;;;5029431;28;20484;-67
2022/10/26 09:45:12;;;;;;;2.00;1.70;;;18.40;99.90;;;;;;5011878;28;20495;-67
2022/10/26 09:47:42;;;;;;;3.07;1.80;;;18.80;99.90;;;;;;5012241;28;20556;-67
2022/10/26 09:50:21;;;;;;;2.30;1.60;;;19.30;99.90;;;;;;5012076;28;20520;-67
2022/10/26 09:52:48;;;;;;;4.03;2.27;;;19.80;99.90;;;;;;5011642;28;20470;-66
2022/10/26 09:55:16;;;;;;;3.77;1.93;;;20.30;99.90;;;;;;5011755;28;20584;-67
2022/10/26 09:57:49;;;;;;;2.50;2.23;;;20.60;99.90;;;;;;5012379;28;20442;-67
2022/10/26 10:00:19;;;;;;;4.60;2.10;;;20.90;99.90;;;;;;5011588;28;20473;-67
2022/10/26 10:02:50;;;;;;;2.50;1.60;;;21.00;99.90;;;;;;5011598;28;20487;-68
2022/10/26 10:05:27;;;;;;;2.80;1.60;;;21.00;99.90;;;;;;5011683;28;21242;-68
2022/10/26 10:08:11;;;;;;;2.27;1.60;;;20.60;99.90;;;;;;5011144;28;20494;-68
2022/10/26 10:10:38;;;;;;;2.87;1.90;;;20.10;99.90;;;;;;5011869;28;20462;-68
2022/10/26 10:13:17;;;;;;;1.57;1.43;;;19.70;99.90;;;;;;5011515;28;20921;-68
2022/10/26 10:15:53;;;;;;;2.27;1.70;;;19.40;99.90;;;;;;5011568;28;20481;-68
2022/10/26 10:18:22;;;;;;;2.33;1.90;;;19.20;99.90;;;;;;5011914;28;20985;-68
2022/10/26 10:20:55;;;;;;;2.63;1.80;;;19.10;99.90;;;;;;5011557;28;21004;-68
2022/10/26 10:23:29;;;;;;;2.23;1.73;;;19.10;99.90;;;;;;5010802;28;20489;-67
2022/10/26 10:26:00;;;;;;;2.70;1.80;;;19.40;99.90;;;;;;5011455;28;20558;-67
2022/10/26 10:28:29;;;;;;;2.13;1.80;;;19.80;99.90;;;;;;5011677;28;20462;-68
2022/10/26 10:30:58;;;;;;;3.23;1.70;;;20.30;99.90;;;;;;5010728;28;20992;-67
2022/10/26 10:33:33;;;;;;;2.13;1.53;;;20.80;99.90;;;;;;5010540;28;20461;-67
2022/10/26 10:36:01;;;;;;;3.90;2.40;;;21.20;99.90;;;;;;5011515;28;20468;-67
2022/10/26 10:38:28;;;;;;;2.47;1.77;;;21.50;99.90;;;;;;5029262;28;20460;-67
2022/10/26 10:40:58;;;;;;;4.07;2.37;;;21.70;99.90;;;;;;5030872;28;20471;-67
2022/10/26 10:43:26;;;;;;;2.40;1.77;;;21.50;99.90;;;;;;5030730;28;20496;-68
2022/10/26 10:45:57;;;;;;;2.67;1.60;;;21.30;99.90;;;;;;5029060;28;20918;-67
2022/10/26 10:48:26;;;;;;;3.10;2.07;;;21.10;99.90;;;;;;5030997;28;20461;-67
2022/10/26 10:50:56;;;;;;;5.03;1.63;;;20.90;99.90;;;;;;5030527;28;20480;-68
2022/10/26 10:53:28;;;;;;;2.83;1.90;;;20.80;99.90;;;;;;5030082;28;20492;-67
2022/10/26 10:56:13;;;;;;;4.50;1.83;;;20.70;99.90;;;;;;5030357;28;20492;-67
2022/10/26 10:58:50;;;;;;;2.03;1.60;;;20.60;99.90;;;;;;5031003;28;20482;-66
2022/10/26 11:01:22;;;;;;;3.07;2.30;;;20.40;99.90;;;;;;5030220;28;20960;-66
2022/10/26 11:04:24;;;;;;;2.43;1.77;;;20.30;99.90;;;;;;5030816;28;20499;-67
2022/10/26 11:06:53;;;;;;;2.80;1.40;;;20.40;99.90;;;;;;5027283;28;20474;-67
2022/10/26 11:09:26;;;;;;;4.40;2.40;;;20.30;99.90;;;;;;5030224;28;20467;-67
2022/10/26 11:11:57;;;;;;;2.60;1.70;;;20.40;99.90;;;;;;5030253;28;20471;-67
2022/10/26 11:14:28;;;;;;;2.50;1.60;;;20.40;99.90;;;;;;5029929;28;20488;-67
2022/10/26 11:17:04;;;;;;;4.40;1.90;;;20.20;99.90;;;;;;5030457;28;20468;-67
2022/10/26 11:19:36;;;;;;;5.40;2.20;;;20.10;99.90;;;;;;5030835;28;20472;-67
2022/10/26 11:22:05;;;;;;;2.27;2.07;;;20.10;99.90;;;;;;5029222;28;20841;-67
2022/10/26 11:24:41;;;;;;;2.90;1.87;;;20.00;99.90;;;;;;5030092;28;20492;-67
2022/10/26 11:27:14;;;;;;;1.97;1.70;;;19.90;99.90;;;;;;5030151;28;20470;-67
2022/10/26 11:29:45;;;;;;;2.13;1.57;;;19.90;99.90;;;;;;5030021;28;20991;-67
2022/10/26 11:32:18;;;;;;;2.50;1.60;;;20.00;99.90;;;;;;5029658;28;20473;-67
2022/10/26 11:34:50;;;;;;;3.77;2.43;;;20.10;99.90;;;;;;5030020;28;20483;-68
2022/10/26 11:37:23;;;;;;;3.33;1.90;;;20.30;99.90;;;;;;5029247;28;20472;-68
2022/10/26 11:40:04;;;;;;;2.00;1.53;;;20.60;99.90;;;;;;5031145;28;20467;-67
2022/10/26 11:42:40;;;;;;;2.90;1.47;;;20.90;99.90;;;;;;5030665;28;20457;-67
2022/10/26 11:45:13;;;;;;;4.30;2.03;;;21.20;99.90;;;;;;5030798;28;20497;-67
2022/10/26 11:47:46;;;;;;;3.20;1.53;;;21.50;99.90;;;;;;5030896;28;20465;-67
2022/10/26 11:50:18;;;;;;;2.13;1.47;;;21.70;99.90;;;;;;5030942;28;20459;-67
2022/10/26 11:52:50;;;;;;;2.60;1.63;;;21.90;99.90;;;;;;5030526;28;20465;-67
2022/10/26 11:55:18;;;;;;;2.67;1.73;;;22.00;99.90;;;;;;5030747;28;20490;-67
2022/10/26 11:57:46;;;;;;;1.63;1.23;;;22.00;99.90;;;;;;5030761;28;20464;-67
2022/10/26 12:00:17;;;;;;;1.90;1.60;;;21.70;99.90;;;;;;5030688;28;20506;-67
2022/10/26 12:02:49;;;;;;;2.70;1.50;;;21.40;99.90;;;;;;5030628;28;20465;-67
2022/10/26 12:05:25;;;;;;;2.80;1.50;;;21.20;99.90;;;;;;5030424;28;20500;-67
2022/10/26 12:07:55;;;;;;;2.83;1.57;;;21.00;99.90;;;;;;5030665;28;20463;-67
2022/10/26 12:10:26;;;;;;;1.80;1.60;;;20.90;99.90;;;;;;5030703;28;20472;-67
2022/10/26 12:12:59;;;;;;;4.60;1.80;;;20.70;99.90;;;;;;5030532;28;20579;-67
2022/10/26 12:18:07;;;;;;;1.53;1.33;;;20.40;99.90;;;;;;5024005;28;20471;-68
2022/10/26 12:20:55;;;;;;;2.27;1.70;;;20.30;99.90;;;;;;5030098;28;20461;-67
2022/10/26 12:23:23;;;;;;;1.63;1.33;;;20.20;99.90;;;;;;5028895;28;20487;-67
2022/10/26 12:25:50;;;;;;;2.07;1.70;;;20.20;99.90;;;;;;5029955;28;20482;-68
2022/10/26 12:28:40;;;;;;;3.10;1.57;;;20.20;99.90;;;;;;5030481;28;20467;-68
2022/10/26 12:31:43;;;;;;;3.17;1.37;;;20.20;99.90;;;;;;5030279;28;20938;-68
2022/10/26 12:34:21;;;;;;;5.50;1.93;;;20.20;99.90;;;;;;4988475;28;20495;-68
2022/10/26 12:36:50;;;;;;;2.10;1.57;;;20.20;99.90;;;;;;5025167;28;20983;-68
2022/10/26 12:39:30;;;;;;;3.70;2.03;;;20.20;99.90;;;;;;5029981;28;20458;-68
2022/10/26 12:41:59;;;;;;;4.80;2.43;;;20.20;99.90;;;;;;5029683;28;20456;-68
2022/10/26 12:44:34;;;;;;;2.20;1.90;;;20.20;99.90;;;;;;5030113;28;20539;-69
2022/10/26 12:47:01;;;;;;;6.70;2.93;;;20.20;99.90;;;;;;5029628;28;20465;-69
2022/10/26 12:49:58;;;;;;;2.60;1.60;;;20.10;99.90;;;;;;5030394;28;20467;-69
2022/10/26 12:52:49;;;;;;;4.30;1.53;;;20.20;99.90;;;;;;5029545;28;20543;-67
2022/10/26 12:56:01;;;;;;;3.97;1.63;;;20.20;99.90;;;;;;5029648;28;20477;-66
2022/10/26 12:58:53;;;;;;;2.23;1.63;;;20.20;99.90;;;;;;5030046;28;20469;-67
2022/10/26 13:01:41;;;;;;;3.07;1.57;;;20.40;99.90;;;;;;5029456;28;20468;-67
2022/10/26 13:04:25;;;;;;;1.73;1.60;;;20.90;99.90;;;;;;5029702;28;20520;-69
2022/10/26 13:07:19;;;;;;;1.90;1.20;;;21.20;99.90;;;;;;5029335;28;21204;-68
2022/10/26 13:10:02;;;;;;;5.53;5.03;;;21.20;99.90;;;;;;5031697;28;20471;-68
2022/10/26 13:12:38;;;;;;;3.20;1.67;;;21.10;99.90;;;;;;5032702;28;20896;-68
2022/10/26 13:15:18;;;;;;;2.70;2.50;;;21.00;99.90;;;;;;5017465;28;20907;-68
2022/10/26 13:17:55;;;;;;;7.90;3.80;;;21.10;99.90;;;;;;5012962;28;20477;-68
2022/10/26 13:20:22;;;;;;;3.23;2.27;;;21.40;99.90;;;;;;5013401;28;20818;-69
2022/10/26 13:22:49;;;;;;;5.00;2.93;;;21.80;99.90;;;;;;5013045;28;20473;-68
2022/10/26 13:25:24;;;;;;;4.07;3.03;;;22.10;99.90;;;;;;5012761;28;20512;-68